sensor_id;sensor_type;location;lat;lon;timestamp;temperature;humidity
11894;DHT22;6006;49.696;8.662;2023-03-01T00:01:18;-1.80;1.00
11894;DHT22;6006;49.696;8.662;2023-03-01T00:03:45;-1.90;99.90
11894;DHT22;6006;49.696;8.662;2023-03-01T00:06:13;-1.90;1.00
11894;DHT22;6006;49.696;8.662;2023-03-01T00:08:41;-1.90;1.00
11894;DHT22;6006;49.696;8.662;2023-03-01T00:11:11;-2.00;1.00
11894;DHT22;6006;49.696;8.662;2023-03-01T00:13:39;-2.00;1.00
11894;DHT22;6006;49.696;8.662;2023-03-01T00:16:08;-2.10;1.00
11894;DHT22;6006;49.696;8.662;2023-03-01T00:18:35;-2.10;99.90
11894;DHT22;6006;49.696;8.662;2023-03-01T00:21:02;-2.20;99.90
11894;DHT22;6006;49.696;8.662;2023-03-01T00:23:29;-2.20;1.00
11894;DHT22;6006;49.696;8.662;2023-03-01T00:25:57;-2.10;1.00
11894;DHT22;6006;49.696;8.662;2023-03-01T00:28:24;-1.90;99.90
11894;DHT22;6006;49.696;8.662;2023-03-01T00:30:51;-1.70;1.00
11894;DHT22;6006;49.696;8.662;2023-03-01T00:33:18;-1.50;1.00
11894;DHT22;6006;49.696;8.662;2023-03-01T00:35:45;-1.40;99.90
11894;DHT22;6006;49.696;8.662;2023-03-01T00:38:12;-1.20;1.00
11894;DHT22;6006;49.696;8.662;2023-03-01T00:40:39;-1.10;99.90
11894;DHT22;6006;49.696;8.662;2023-03-01T00:43:08;-1.00;1.00
11894;DHT22;6006;49.696;8.662;2023-03-01T00:45:35;-1.00;1.00
11894;DHT22;6006;49.696;8.662;2023-03-01T00:48:02;-0.90;1.00
11894;DHT22;6006;49.696;8.662;2023-03-01T00:50:30;-0.90;1.00
11894;DHT22;6006;49.696;8.662;2023-03-01T00:52:57;-0.90;1.00
11894;DHT22;6006;49.696;8.662;2023-03-01T00:55:24;-0.90;1.00
11894;DHT22;6006;49.696;8.662;2023-03-01T00:57:52;-0.90;1.00
11894;DHT22;6006;49.696;8.662;2023-03-01T01:00:20;-0.90;1.00
11894;DHT22;6006;49.696;8.662;2023-03-01T01:02:48;-0.90;1.00
11894;DHT22;6006;49.696;8.662;2023-03-01T01:05:15;-0.90;1.00
11894;DHT22;6006;49.696;8.662;2023-03-01T01:07:46;-0.90;1.00
11894;DHT22;6006;49.696;8.662;2023-03-01T01:10:13;-1.00;1.00
11894;DHT22;6006;49.696;8.662;2023-03-01T01:12:43;-1.00;1.00
11894;DHT22;6006;49.696;8.662;2023-03-01T01:15:10;-1.10;1.00
11894;DHT22;6006;49.696;8.662;2023-03-01T01:17:40;-1.20;99.90
11894;DHT22;6006;49.696;8.662;2023-03-01T01:20:08;-1.30;67.80
11894;DHT22;6006;49.696;8.662;2023-03-01T01:22:35;-1.40;99.90
11894;DHT22;6006;49.696;8.662;2023-03-01T01:25:02;-1.50;99.90
11894;DHT22;6006;49.696;8.662;2023-03-01T01:27:29;-1.50;1.00
11894;DHT22;6006;49.696;8.662;2023-03-01T01:29:56;-1.60;99.90
11894;DHT22;6006;49.696;8.662;2023-03-01T01:32:23;-1.60;1.00
11894;DHT22;6006;49.696;8.662;2023-03-01T01:34:51;-1.60;1.00
11894;DHT22;6006;49.696;8.662;2023-03-01T01:37:18;-1.50;1.00
11894;DHT22;6006;49.696;8.662;2023-03-01T01:39:45;-1.50;1.00
11894;DHT22;6006;49.696;8.662;2023-03-01T01:42:15;-1.40;1.00
11894;DHT22;6006;49.696;8.662;2023-03-01T01:44:44;-1.40;1.00
11894;DHT22;6006;49.696;8.662;2023-03-01T01:47:15;-1.40;99.90
11894;DHT22;6006;49.696;8.662;2023-03-01T01:49:45;-1.30;99.90
11894;DHT22;6006;49.696;8.662;2023-03-01T01:52:18;-1.30;1.00
11894;DHT22;6006;49.696;8.662;2023-03-01T01:54:50;-1.20;1.00
11894;DHT22;6006;49.696;8.662;2023-03-01T01:57:22;-1.20;1.00
11894;DHT22;6006;49.696;8.662;2023-03-01T01:59:53;-1.20;1.00
11894;DHT22;6006;49.696;8.662;2023-03-01T02:02:21;-1.20;1.00
11894;DHT22;6006;49.696;8.662;2023-03-01T02:04:49;-1.20;1.00
11894;DHT22;6006;49.696;8.662;2023-03-01T02:07:22;-1.20;1.00
11894;DHT22;6006;49.696;8.662;2023-03-01T02:09:52;-1.20;1.00
11894;DHT22;6006;49.696;8.662;2023-03-01T02:12:21;-1.30;1.00
11894;DHT22;6006;49.696;8.662;2023-03-01T02:14:48;-1.30;86.10
11894;DHT22;6006;49.696;8.662;2023-03-01T02:17:17;-1.30;99.90
11894;DHT22;6006;49.696;8.662;2023-03-01T02:19:56;-1.30;99.90
11894;DHT22;6006;49.696;8.662;2023-03-01T02:22:29;-1.20;99.90
11894;DHT22;6006;49.696;8.662;2023-03-01T02:25:07;-1.20;99.90
11894;DHT22;6006;49.696;8.662;2023-03-01T02:27:45;-1.10;99.90
11894;DHT22;6006;49.696;8.662;2023-03-01T02:30:18;-1.00;1.00
11894;DHT22;6006;49.696;8.662;2023-03-01T02:32:44;-0.90;1.00
11894;DHT22;6006;49.696;8.662;2023-03-01T02:35:13;-0.90;99.90
11894;DHT22;6006;49.696;8.662;2023-03-01T02:37:42;-0.80;99.90
11894;DHT22;6006;49.696;8.662;2023-03-01T02:40:12;-0.70;99.90
11894;DHT22;6006;49.696;8.662;2023-03-01T02:42:45;-0.70;62.90
11894;DHT22;6006;49.696;8.662;2023-03-01T02:45:14;-0.70;1.00
11894;DHT22;6006;49.696;8.662;2023-03-01T02:47:42;-0.70;1.00
11894;DHT22;6006;49.696;8.662;2023-03-01T02:50:25;-0.70;55.30
11894;DHT22;6006;49.696;8.662;2023-03-01T02:53:01;-0.70;11.70
11894;DHT22;6006;49.696;8.662;2023-03-01T02:55:31;-0.80;1.00
11894;DHT22;6006;49.696;8.662;2023-03-01T02:58:02;-0.80;99.90
11894;DHT22;6006;49.696;8.662;2023-03-01T03:00:34;-0.80;99.90
11894;DHT22;6006;49.696;8.662;2023-03-01T03:03:07;-0.80;99.90
11894;DHT22;6006;49.696;8.662;2023-03-01T03:05:35;-0.80;99.90
11894;DHT22;6006;49.696;8.662;2023-03-01T03:08:03;-0.80;99.90
11894;DHT22;6006;49.696;8.662;2023-03-01T03:10:32;-0.80;99.90
11894;DHT22;6006;49.696;8.662;2023-03-01T03:13:01;-0.90;99.90
11894;DHT22;6006;49.696;8.662;2023-03-01T03:15:29;-0.90;1.00
11894;DHT22;6006;49.696;8.662;2023-03-01T03:17:57;-0.90;99.90
11894;DHT22;6006;49.696;8.662;2023-03-01T03:20:27;-0.90;99.90
11894;DHT22;6006;49.696;8.662;2023-03-01T03:22:56;-0.90;99.90
11894;DHT22;6006;49.696;8.662;2023-03-01T03:25:24;-0.80;1.00
11894;DHT22;6006;49.696;8.662;2023-03-01T03:27:52;-0.80;1.00
11894;DHT22;6006;49.696;8.662;2023-03-01T03:30:23;-0.80;1.00
11894;DHT22;6006;49.696;8.662;2023-03-01T03:32:50;-0.80;1.00
11894;DHT22;6006;49.696;8.662;2023-03-01T03:35:19;-0.80;1.00
11894;DHT22;6006;49.696;8.662;2023-03-01T03:37:48;-0.80;1.00
11894;DHT22;6006;49.696;8.662;2023-03-01T03:40:33;-0.70;1.00
11894;DHT22;6006;49.696;8.662;2023-03-01T03:43:01;-0.70;1.00
11894;DHT22;6006;49.696;8.662;2023-03-01T03:45:27;-0.70;1.00
11894;DHT22;6006;49.696;8.662;2023-03-01T03:47:54;-0.70;1.00
11894;DHT22;6006;49.696;8.662;2023-03-01T03:50:21;-0.70;1.00
11894;DHT22;6006;49.696;8.662;2023-03-01T03:52:49;-0.70;1.00
11894;DHT22;6006;49.696;8.662;2023-03-01T03:55:16;-0.70;1.00
11894;DHT22;6006;49.696;8.662;2023-03-01T03:57:46;-0.70;1.00
11894;DHT22;6006;49.696;8.662;2023-03-01T04:00:18;-0.70;1.00
11894;DHT22;6006;49.696;8.662;2023-03-01T04:02:46;-0.70;1.00
11894;DHT22;6006;49.696;8.662;2023-03-01T04:05:16;-0.70;1.00
11894;DHT22;6006;49.696;8.662;2023-03-01T04:07:44;-0.70;1.00
11894;DHT22;6006;49.696;8.662;2023-03-01T04:10:14;-0.70;1.00
11894;DHT22;6006;49.696;8.662;2023-03-01T04:12:41;-0.70;1.00
11894;DHT22;6006;49.696;8.662;2023-03-01T04:15:10;-0.70;1.00
11894;DHT22;6006;49.696;8.662;2023-03-01T04:17:39;-0.70;1.00
11894;DHT22;6006;49.696;8.662;2023-03-01T04:20:08;-0.70;1.00
11894;DHT22;6006;49.696;8.662;2023-03-01T04:22:36;-0.80;1.00
11894;DHT22;6006;49.696;8.662;2023-03-01T04:25:04;-0.80;1.00
11894;DHT22;6006;49.696;8.662;2023-03-01T04:27:33;-0.80;1.00
11894;DHT22;6006;49.696;8.662;2023-03-01T04:30:00;-0.80;1.00
11894;DHT22;6006;49.696;8.662;2023-03-01T04:32:27;-0.80;1.00
11894;DHT22;6006;49.696;8.662;2023-03-01T04:34:54;-0.80;1.00
11894;DHT22;6006;49.696;8.662;2023-03-01T04:37:20;-0.80;1.00
11894;DHT22;6006;49.696;8.662;2023-03-01T04:39:47;-0.70;1.00
11894;DHT22;6006;49.696;8.662;2023-03-01T04:42:14;-0.70;1.00
11894;DHT22;6006;49.696;8.662;2023-03-01T04:44:43;-0.70;1.00
11894;DHT22;6006;49.696;8.662;2023-03-01T04:47:10;-0.70;1.00
11894;DHT22;6006;49.696;8.662;2023-03-01T04:49:37;-0.70;1.00
11894;DHT22;6006;49.696;8.662;2023-03-01T04:52:04;-0.60;1.00
11894;DHT22;6006;49.696;8.662;2023-03-01T04:54:32;-0.70;1.00
11894;DHT22;6006;49.696;8.662;2023-03-01T04:56:59;-0.70;1.00
11894;DHT22;6006;49.696;8.662;2023-03-01T04:59:27;-0.70;1.00
11894;DHT22;6006;49.696;8.662;2023-03-01T05:01:56;-0.70;1.00
11894;DHT22;6006;49.696;8.662;2023-03-01T05:04:23;-0.70;1.00
11894;DHT22;6006;49.696;8.662;2023-03-01T05:06:51;-0.70;1.00
11894;DHT22;6006;49.696;8.662;2023-03-01T05:09:19;-0.70;1.00
11894;DHT22;6006;49.696;8.662;2023-03-01T05:11:46;-0.70;1.00
11894;DHT22;6006;49.696;8.662;2023-03-01T05:14:13;-0.70;1.00
11894;DHT22;6006;49.696;8.662;2023-03-01T05:16:40;-0.70;1.00
11894;DHT22;6006;49.696;8.662;2023-03-01T05:19:08;-0.70;1.00
11894;DHT22;6006;49.696;8.662;2023-03-01T05:21:41;-0.70;1.00
11894;DHT22;6006;49.696;8.662;2023-03-01T05:24:22;-0.70;1.00
11894;DHT22;6006;49.696;8.662;2023-03-01T05:26:49;-0.60;1.00
11894;DHT22;6006;49.696;8.662;2023-03-01T05:29:17;-0.60;1.00
11894;DHT22;6006;49.696;8.662;2023-03-01T05:31:50;-0.50;1.00
11894;DHT22;6006;49.696;8.662;2023-03-01T05:34:19;-0.50;1.00
11894;DHT22;6006;49.696;8.662;2023-03-01T05:36:48;-0.50;99.90
11894;DHT22;6006;49.696;8.662;2023-03-01T05:39:19;-0.50;99.90
11894;DHT22;6006;49.696;8.662;2023-03-01T05:41:46;-0.50;99.90
11894;DHT22;6006;49.696;8.662;2023-03-01T05:44:13;-0.40;99.90
11894;DHT22;6006;49.696;8.662;2023-03-01T05:46:41;-0.40;99.90
11894;DHT22;6006;49.696;8.662;2023-03-01T05:49:08;-0.40;99.90
11894;DHT22;6006;49.696;8.662;2023-03-01T05:51:36;-0.40;99.90
11894;DHT22;6006;49.696;8.662;2023-03-01T05:54:03;-0.40;99.90
11894;DHT22;6006;49.696;8.662;2023-03-01T05:56:32;-0.40;1.00
11894;DHT22;6006;49.696;8.662;2023-03-01T05:58:59;-0.50;1.00
11894;DHT22;6006;49.696;8.662;2023-03-01T06:01:26;-0.50;1.00
11894;DHT22;6006;49.696;8.662;2023-03-01T06:03:53;-0.50;1.00
11894;DHT22;6006;49.696;8.662;2023-03-01T06:06:20;-0.50;1.00
11894;DHT22;6006;49.696;8.662;2023-03-01T06:08:48;-0.50;1.00
11894;DHT22;6006;49.696;8.662;2023-03-01T06:11:15;-0.50;1.00
11894;DHT22;6006;49.696;8.662;2023-03-01T06:13:43;-0.50;1.00
11894;DHT22;6006;49.696;8.662;2023-03-01T06:16:10;-0.50;1.00
11894;DHT22;6006;49.696;8.662;2023-03-01T06:18:37;-0.50;1.00
11894;DHT22;6006;49.696;8.662;2023-03-01T06:21:04;-0.50;1.00
11894;DHT22;6006;49.696;8.662;2023-03-01T06:23:31;-0.50;1.00
11894;DHT22;6006;49.696;8.662;2023-03-01T06:26:00;-0.50;1.00
11894;DHT22;6006;49.696;8.662;2023-03-01T06:28:26;-0.50;1.00
11894;DHT22;6006;49.696;8.662;2023-03-01T06:30:53;-0.50;1.00
11894;DHT22;6006;49.696;8.662;2023-03-01T06:33:20;-0.40;1.00
11894;DHT22;6006;49.696;8.662;2023-03-01T06:35:49;-0.40;99.90
11894;DHT22;6006;49.696;8.662;2023-03-01T06:38:16;-0.40;99.90
11894;DHT22;6006;49.696;8.662;2023-03-01T06:40:44;-0.30;99.90
11894;DHT22;6006;49.696;8.662;2023-03-01T06:43:13;-0.30;99.90
11894;DHT22;6006;49.696;8.662;2023-03-01T06:45:39;-0.30;99.90
11894;DHT22;6006;49.696;8.662;2023-03-01T06:48:07;-0.20;99.90
11894;DHT22;6006;49.696;8.662;2023-03-01T06:50:34;-0.20;99.90
11894;DHT22;6006;49.696;8.662;2023-03-01T06:53:02;-0.10;99.90
11894;DHT22;6006;49.696;8.662;2023-03-01T06:55:29;-0.10;99.90
11894;DHT22;6006;49.696;8.662;2023-03-01T06:57:56;-0.10;99.90
11894;DHT22;6006;49.696;8.662;2023-03-01T07:00:26;0.00;99.90
11894;DHT22;6006;49.696;8.662;2023-03-01T07:02:54;0.00;99.90
11894;DHT22;6006;49.696;8.662;2023-03-01T07:05:21;0.00;99.90
11894;DHT22;6006;49.696;8.662;2023-03-01T07:07:48;0.10;99.90
11894;DHT22;6006;49.696;8.662;2023-03-01T07:10:15;0.20;99.90
11894;DHT22;6006;49.696;8.662;2023-03-01T07:12:42;0.30;49.80
11894;DHT22;6006;49.696;8.662;2023-03-01T07:15:09;0.30;62.10
11894;DHT22;6006;49.696;8.662;2023-03-01T07:17:38;0.40;30.70
11894;DHT22;6006;49.696;8.662;2023-03-01T07:20:05;0.50;50.30
11894;DHT22;6006;49.696;8.662;2023-03-01T07:22:32;0.70;1.00
11894;DHT22;6006;49.696;8.662;2023-03-01T07:24:59;0.90;1.00
11894;DHT22;6006;49.696;8.662;2023-03-01T07:27:26;1.10;1.00
11894;DHT22;6006;49.696;8.662;2023-03-01T07:29:53;1.20;1.00
11894;DHT22;6006;49.696;8.662;2023-03-01T07:32:20;1.40;1.00
11894;DHT22;6006;49.696;8.662;2023-03-01T07:34:48;1.60;1.00
11894;DHT22;6006;49.696;8.662;2023-03-01T07:37:15;1.70;1.00
11894;DHT22;6006;49.696;8.662;2023-03-01T07:39:42;1.80;1.00
11894;DHT22;6006;49.696;8.662;2023-03-01T07:42:09;1.90;1.00
11894;DHT22;6006;49.696;8.662;2023-03-01T07:44:35;1.90;1.00
11894;DHT22;6006;49.696;8.662;2023-03-01T07:47:03;2.00;1.00
11894;DHT22;6006;49.696;8.662;2023-03-01T07:49:29;2.10;1.00
11894;DHT22;6006;49.696;8.662;2023-03-01T07:51:58;2.30;1.00
11894;DHT22;6006;49.696;8.662;2023-03-01T07:54:25;2.20;1.00
11894;DHT22;6006;49.696;8.662;2023-03-01T07:56:52;2.10;1.00
11894;DHT22;6006;49.696;8.662;2023-03-01T07:59:20;2.10;1.00
11894;DHT22;6006;49.696;8.662;2023-03-01T08:01:49;2.30;1.00
11894;DHT22;6006;49.696;8.662;2023-03-01T08:04:16;2.50;1.00
11894;DHT22;6006;49.696;8.662;2023-03-01T08:06:43;2.70;1.00
11894;DHT22;6006;49.696;8.662;2023-03-01T08:09:11;2.50;1.00
11894;DHT22;6006;49.696;8.662;2023-03-01T08:11:38;2.50;1.00
11894;DHT22;6006;49.696;8.662;2023-03-01T08:14:05;2.40;1.00
11894;DHT22;6006;49.696;8.662;2023-03-01T08:16:32;2.40;1.00
11894;DHT22;6006;49.696;8.662;2023-03-01T08:19:04;2.30;1.00
11894;DHT22;6006;49.696;8.662;2023-03-01T08:21:31;2.40;1.00
11894;DHT22;6006;49.696;8.662;2023-03-01T08:24:00;2.50;1.00
11894;DHT22;6006;49.696;8.662;2023-03-01T08:26:28;2.50;1.00
11894;DHT22;6006;49.696;8.662;2023-03-01T08:28:55;2.60;1.00
11894;DHT22;6006;49.696;8.662;2023-03-01T08:31:25;2.60;1.00
11894;DHT22;6006;49.696;8.662;2023-03-01T08:33:53;2.60;1.00
11894;DHT22;6006;49.696;8.662;2023-03-01T08:36:21;2.60;1.00
11894;DHT22;6006;49.696;8.662;2023-03-01T08:38:49;2.60;1.00
11894;DHT22;6006;49.696;8.662;2023-03-01T08:41:15;2.60;1.00
11894;DHT22;6006;49.696;8.662;2023-03-01T08:43:44;2.70;1.00
11894;DHT22;6006;49.696;8.662;2023-03-01T08:46:11;2.90;1.00
11894;DHT22;6006;49.696;8.662;2023-03-01T08:48:39;3.00;99.90
11894;DHT22;6006;49.696;8.662;2023-03-01T08:51:09;3.00;99.90
11894;DHT22;6006;49.696;8.662;2023-03-01T08:53:36;3.10;99.90
11894;DHT22;6006;49.696;8.662;2023-03-01T08:56:03;3.20;99.90
11894;DHT22;6006;49.696;8.662;2023-03-01T08:58:30;3.20;1.00
11894;DHT22;6006;49.696;8.662;2023-03-01T09:00:58;3.20;1.00
11894;DHT22;6006;49.696;8.662;2023-03-01T09:03:26;3.30;99.90
11894;DHT22;6006;49.696;8.662;2023-03-01T09:05:53;3.40;99.90
11894;DHT22;6006;49.696;8.662;2023-03-01T09:08:26;3.60;99.90
11894;DHT22;6006;49.696;8.662;2023-03-01T09:10:52;3.70;99.90
11894;DHT22;6006;49.696;8.662;2023-03-01T09:13:19;3.90;99.90
11894;DHT22;6006;49.696;8.662;2023-03-01T09:15:49;4.10;99.90
11894;DHT22;6006;49.696;8.662;2023-03-01T09:18:17;4.00;99.90
11894;DHT22;6006;49.696;8.662;2023-03-01T09:20:44;4.00;99.90
11894;DHT22;6006;49.696;8.662;2023-03-01T09:23:11;4.10;99.90
11894;DHT22;6006;49.696;8.662;2023-03-01T09:25:37;4.10;99.90
11894;DHT22;6006;49.696;8.662;2023-03-01T09:28:04;4.20;99.90
11894;DHT22;6006;49.696;8.662;2023-03-01T09:30:31;4.30;99.90
11894;DHT22;6006;49.696;8.662;2023-03-01T09:32:58;4.40;99.90
11894;DHT22;6006;49.696;8.662;2023-03-01T09:35:26;4.30;99.90
11894;DHT22;6006;49.696;8.662;2023-03-01T09:37:53;4.50;99.90
11894;DHT22;6006;49.696;8.662;2023-03-01T09:40:23;4.60;99.90
11894;DHT22;6006;49.696;8.662;2023-03-01T09:42:54;4.70;99.90
11894;DHT22;6006;49.696;8.662;2023-03-01T09:45:28;4.90;99.90
11894;DHT22;6006;49.696;8.662;2023-03-01T09:47:56;5.00;99.90
11894;DHT22;6006;49.696;8.662;2023-03-01T09:50:28;5.10;99.90
11894;DHT22;6006;49.696;8.662;2023-03-01T09:53:01;5.10;99.90
11894;DHT22;6006;49.696;8.662;2023-03-01T09:55:32;5.20;99.90
11894;DHT22;6006;49.696;8.662;2023-03-01T09:58:06;5.30;99.90
11894;DHT22;6006;49.696;8.662;2023-03-01T10:00:41;5.30;99.90
11894;DHT22;6006;49.696;8.662;2023-03-01T10:03:14;5.60;99.90
11894;DHT22;6006;49.696;8.662;2023-03-01T10:05:50;5.70;99.90
11894;DHT22;6006;49.696;8.662;2023-03-01T10:08:32;5.80;99.90
11894;DHT22;6006;49.696;8.662;2023-03-01T10:11:02;5.90;99.90
11894;DHT22;6006;49.696;8.662;2023-03-01T10:13:37;5.60;99.90
11894;DHT22;6006;49.696;8.662;2023-03-01T10:16:11;5.80;99.90
11894;DHT22;6006;49.696;8.662;2023-03-01T10:18:41;6.10;99.90
11894;DHT22;6006;49.696;8.662;2023-03-01T10:21:14;6.30;99.90
11894;DHT22;6006;49.696;8.662;2023-03-01T10:23:42;6.50;99.90
11894;DHT22;6006;49.696;8.662;2023-03-01T10:26:22;6.60;99.90
11894;DHT22;6006;49.696;8.662;2023-03-01T10:29:00;6.90;99.90
11894;DHT22;6006;49.696;8.662;2023-03-01T10:31:38;7.00;99.90
11894;DHT22;6006;49.696;8.662;2023-03-01T10:34:10;7.10;99.90
11894;DHT22;6006;49.696;8.662;2023-03-01T10:36:39;7.20;99.90
11894;DHT22;6006;49.696;8.662;2023-03-01T10:39:14;7.20;99.90
11894;DHT22;6006;49.696;8.662;2023-03-01T10:42:02;7.30;99.90
11894;DHT22;6006;49.696;8.662;2023-03-01T10:44:42;7.30;99.90
11894;DHT22;6006;49.696;8.662;2023-03-01T10:47:19;7.40;99.90
11894;DHT22;6006;49.696;8.662;2023-03-01T10:49:55;7.70;99.90
11894;DHT22;6006;49.696;8.662;2023-03-01T10:52:27;7.80;99.90
11894;DHT22;6006;49.696;8.662;2023-03-01T10:54:57;7.80;99.90
11894;DHT22;6006;49.696;8.662;2023-03-01T10:57:30;8.00;99.90
11894;DHT22;6006;49.696;8.662;2023-03-01T11:00:14;8.00;99.90
11894;DHT22;6006;49.696;8.662;2023-03-01T11:02:43;8.10;99.90
11894;DHT22;6006;49.696;8.662;2023-03-01T11:05:22;8.10;99.90
11894;DHT22;6006;49.696;8.662;2023-03-01T11:07:53;8.40;99.90
11894;DHT22;6006;49.696;8.662;2023-03-01T11:10:23;8.30;99.90
11894;DHT22;6006;49.696;8.662;2023-03-01T11:12:51;8.50;99.90
11894;DHT22;6006;49.696;8.662;2023-03-01T11:15:25;8.60;99.90
11894;DHT22;6006;49.696;8.662;2023-03-01T11:17:53;8.70;99.90
11894;DHT22;6006;49.696;8.662;2023-03-01T11:20:26;8.50;99.90
11894;DHT22;6006;49.696;8.662;2023-03-01T11:22:58;8.40;99.90
11894;DHT22;6006;49.696;8.662;2023-03-01T11:25:28;8.60;99.90
11894;DHT22;6006;49.696;8.662;2023-03-01T11:27:59;8.50;99.90
11894;DHT22;6006;49.696;8.662;2023-03-01T11:30:32;8.50;99.90
11894;DHT22;6006;49.696;8.662;2023-03-01T11:33:15;8.60;99.90
11894;DHT22;6006;49.696;8.662;2023-03-01T11:35:45;8.50;99.90
11894;DHT22;6006;49.696;8.662;2023-03-01T11:38:21;8.60;99.90
11894;DHT22;6006;49.696;8.662;2023-03-01T11:40:52;8.30;99.90
11894;DHT22;6006;49.696;8.662;2023-03-01T11:43:28;8.20;99.90
11894;DHT22;6006;49.696;8.662;2023-03-01T11:49:00;8.80;99.90
11894;DHT22;6006;49.696;8.662;2023-03-01T11:51:40;8.70;99.90
11894;DHT22;6006;49.696;8.662;2023-03-01T11:54:29;9.20;99.90
11894;DHT22;6006;49.696;8.662;2023-03-01T11:57:03;9.20;99.90
11894;DHT22;6006;49.696;8.662;2023-03-01T12:00:00;9.00;99.90
11894;DHT22;6006;49.696;8.662;2023-03-01T12:03:04;9.00;99.90
11894;DHT22;6006;49.696;8.662;2023-03-01T12:05:59;9.10;99.90
11894;DHT22;6006;49.696;8.662;2023-03-01T12:08:35;9.10;99.90
11894;DHT22;6006;49.696;8.662;2023-03-01T12:11:18;9.30;99.90
11894;DHT22;6006;49.696;8.662;2023-03-01T12:14:13;8.90;99.90
11894;DHT22;6006;49.696;8.662;2023-03-01T12:17:14;9.20;99.90
11894;DHT22;6006;49.696;8.662;2023-03-01T12:19:56;9.50;99.90
11894;DHT22;6006;49.696;8.662;2023-03-01T12:22:30;9.20;99.90
11894;DHT22;6006;49.696;8.662;2023-03-01T12:25:15;9.30;99.90
11894;DHT22;6006;49.696;8.662;2023-03-01T12:27:57;9.40;99.90
11894;DHT22;6006;49.696;8.662;2023-03-01T12:30:37;9.60;99.90
11894;DHT22;6006;49.696;8.662;2023-03-01T12:33:15;9.90;99.90
11894;DHT22;6006;49.696;8.662;2023-03-01T12:35:58;10.30;99.90
11894;DHT22;6006;49.696;8.662;2023-03-01T12:38:33;10.30;99.90
11894;DHT22;6006;49.696;8.662;2023-03-01T12:44:11;10.80;99.90
11894;DHT22;6006;49.696;8.662;2023-03-01T12:46:56;10.70;99.90
11894;DHT22;6006;49.696;8.662;2023-03-01T12:49:32;11.30;99.90
11894;DHT22;6006;49.696;8.662;2023-03-01T12:52:09;11.00;99.90
11894;DHT22;6006;49.696;8.662;2023-03-01T12:54:38;11.00;99.90
11894;DHT22;6006;49.696;8.662;2023-03-01T12:57:11;11.10;99.90
11894;DHT22;6006;49.696;8.662;2023-03-01T12:59:43;11.50;99.90
11894;DHT22;6006;49.696;8.662;2023-03-01T13:02:17;11.30;99.90
11894;DHT22;6006;49.696;8.662;2023-03-01T13:04:56;10.90;99.90
11894;DHT22;6006;49.696;8.662;2023-03-01T13:07:33;11.00;99.90
11894;DHT22;6006;49.696;8.662;2023-03-01T13:10:20;11.20;99.90
11894;DHT22;6006;49.696;8.662;2023-03-01T13:13:00;10.90;99.90
11894;DHT22;6006;49.696;8.662;2023-03-01T13:15:32;10.30;99.90
11894;DHT22;6006;49.696;8.662;2023-03-01T13:18:01;10.10;99.90
11894;DHT22;6006;49.696;8.662;2023-03-01T13:20:34;9.90;99.90
11894;DHT22;6006;49.696;8.662;2023-03-01T13:23:24;9.90;99.90
11894;DHT22;6006;49.696;8.662;2023-03-01T13:26:07;10.60;99.90
11894;DHT22;6006;49.696;8.662;2023-03-01T13:28:39;10.90;99.90
11894;DHT22;6006;49.696;8.662;2023-03-01T13:31:10;10.80;99.90
11894;DHT22;6006;49.696;8.662;2023-03-01T13:33:44;10.70;99.90
11894;DHT22;6006;49.696;8.662;2023-03-01T13:36:47;10.40;99.90
11894;DHT22;6006;49.696;8.662;2023-03-01T13:39:30;10.30;99.90
11894;DHT22;6006;49.696;8.662;2023-03-01T13:41:59;10.30;99.90
11894;DHT22;6006;49.696;8.662;2023-03-01T13:44:30;10.30;99.90
11894;DHT22;6006;49.696;8.662;2023-03-01T13:47:06;10.10;99.90
11894;DHT22;6006;49.696;8.662;2023-03-01T13:49:43;10.20;99.90
11894;DHT22;6006;49.696;8.662;2023-03-01T13:52:34;10.40;99.90
11894;DHT22;6006;49.696;8.662;2023-03-01T13:55:03;9.80;99.90
11894;DHT22;6006;49.696;8.662;2023-03-01T13:57:34;9.80;99.90
11894;DHT22;6006;49.696;8.662;2023-03-01T14:00:03;9.90;99.90
11894;DHT22;6006;49.696;8.662;2023-03-01T14:02:32;9.90;99.90
11894;DHT22;6006;49.696;8.662;2023-03-01T14:05:00;10.10;99.90
11894;DHT22;6006;49.696;8.662;2023-03-01T14:07:28;10.20;99.90
11894;DHT22;6006;49.696;8.662;2023-03-01T14:09:57;10.30;99.90
11894;DHT22;6006;49.696;8.662;2023-03-01T14:12:35;10.10;99.90
11894;DHT22;6006;49.696;8.662;2023-03-01T14:15:10;10.30;99.90
11894;DHT22;6006;49.696;8.662;2023-03-01T14:17:52;10.40;99.90
11894;DHT22;6006;49.696;8.662;2023-03-01T14:20:21;10.50;99.90
11894;DHT22;6006;49.696;8.662;2023-03-01T14:22:51;11.10;99.90
11894;DHT22;6006;49.696;8.662;2023-03-01T14:25:29;10.90;99.90
11894;DHT22;6006;49.696;8.662;2023-03-01T14:28:00;10.60;99.90
11894;DHT22;6006;49.696;8.662;2023-03-01T14:30:33;10.10;99.90
11894;DHT22;6006;49.696;8.662;2023-03-01T14:33:04;9.80;99.90
11894;DHT22;6006;49.696;8.662;2023-03-01T14:35:34;10.00;99.90
11894;DHT22;6006;49.696;8.662;2023-03-01T14:38:01;10.10;99.90
11894;DHT22;6006;49.696;8.662;2023-03-01T14:40:30;10.10;99.90
11894;DHT22;6006;49.696;8.662;2023-03-01T14:43:00;10.00;99.90
11894;DHT22;6006;49.696;8.662;2023-03-01T14:45:29;10.20;99.90
11894;DHT22;6006;49.696;8.662;2023-03-01T14:48:00;10.60;99.90
11894;DHT22;6006;49.696;8.662;2023-03-01T14:50:31;10.40;99.90
11894;DHT22;6006;49.696;8.662;2023-03-01T14:53:00;10.00;99.90
11894;DHT22;6006;49.696;8.662;2023-03-01T14:55:29;9.90;99.90
11894;DHT22;6006;49.696;8.662;2023-03-01T14:57:58;9.90;99.90
11894;DHT22;6006;49.696;8.662;2023-03-01T15:00:27;10.00;99.90
11894;DHT22;6006;49.696;8.662;2023-03-01T15:03:00;10.20;99.90
11894;DHT22;6006;49.696;8.662;2023-03-01T15:05:32;9.90;99.90
11894;DHT22;6006;49.696;8.662;2023-03-01T15:08:01;9.90;99.90
11894;DHT22;6006;49.696;8.662;2023-03-01T15:10:31;9.80;99.90
11894;DHT22;6006;49.696;8.662;2023-03-01T15:13:10;9.90;99.90
11894;DHT22;6006;49.696;8.662;2023-03-01T15:15:40;10.20;99.90
11894;DHT22;6006;49.696;8.662;2023-03-01T15:18:18;10.30;99.90
11894;DHT22;6006;49.696;8.662;2023-03-01T15:20:47;10.10;99.90
11894;DHT22;6006;49.696;8.662;2023-03-01T15:23:20;9.90;99.90
11894;DHT22;6006;49.696;8.662;2023-03-01T15:25:49;9.90;99.90
11894;DHT22;6006;49.696;8.662;2023-03-01T15:28:23;9.90;99.90
11894;DHT22;6006;49.696;8.662;2023-03-01T15:31:00;9.80;99.90
11894;DHT22;6006;49.696;8.662;2023-03-01T15:33:37;9.70;99.90
11894;DHT22;6006;49.696;8.662;2023-03-01T15:36:39;9.80;99.90
11894;DHT22;6006;49.696;8.662;2023-03-01T15:39:30;9.80;99.90
11894;DHT22;6006;49.696;8.662;2023-03-01T15:41:59;9.60;99.90
11894;DHT22;6006;49.696;8.662;2023-03-01T15:44:28;9.60;99.90
11894;DHT22;6006;49.696;8.662;2023-03-01T15:46:56;9.50;99.90
11894;DHT22;6006;49.696;8.662;2023-03-01T15:49:32;9.50;99.90
11894;DHT22;6006;49.696;8.662;2023-03-01T15:52:01;9.40;99.90
11894;DHT22;6006;49.696;8.662;2023-03-01T15:54:29;9.20;99.90
11894;DHT22;6006;49.696;8.662;2023-03-01T15:56:56;9.00;99.90
11894;DHT22;6006;49.696;8.662;2023-03-01T15:59:23;8.90;99.90
11894;DHT22;6006;49.696;8.662;2023-03-01T16:01:50;8.80;99.90
11894;DHT22;6006;49.696;8.662;2023-03-01T16:04:18;8.70;99.90
11894;DHT22;6006;49.696;8.662;2023-03-01T16:06:49;8.60;99.90
11894;DHT22;6006;49.696;8.662;2023-03-01T16:09:21;8.60;99.90
11894;DHT22;6006;49.696;8.662;2023-03-01T16:11:49;8.50;99.90
11894;DHT22;6006;49.696;8.662;2023-03-01T16:14:16;8.40;99.90
11894;DHT22;6006;49.696;8.662;2023-03-01T16:16:43;8.40;99.90
11894;DHT22;6006;49.696;8.662;2023-03-01T16:19:10;8.30;99.90
11894;DHT22;6006;49.696;8.662;2023-03-01T16:21:38;8.10;99.90
11894;DHT22;6006;49.696;8.662;2023-03-01T16:24:05;8.10;99.90
11894;DHT22;6006;49.696;8.662;2023-03-01T16:26:34;8.00;99.90
11894;DHT22;6006;49.696;8.662;2023-03-01T16:29:01;7.90;99.90